Terminal Aerodrome Forecast
Issued by NWS Grand Forks, ND

Home | Current Version | Previous Version | Graphics & Text | Print | Product List | Glossary On
Versions: 1 2 3 4 5 6 7 8 9 10 11 12
372
FTUS43 KFGF 282320
TAFFAR
TAF
KFAR 282320Z 2900/2924 06008G16KT P6SM BKN100
     FM290300 07008KT P6SM BKN120
     FM290600 VRB04KT P6SM BKN150
     FM291600 04009KT P6SM SCT250=

USA.gov is the U.S. government's official web portal to all federal, state and local government web resources and services.